Time;durP1;ratioP1;P1;durP2;ratioP2;P2;SDS_P1;SDS_P2;PMS_P1;PMS_P2;Temp;Humidity;BMP_temperature;BMP_pressure;BME280_temperature;BME280_humidity;BME280_pressure;Samples;Min_cycle;Max_cycle;Signal;HPM_P1;HPM_P2
2021/11/19 00:01:36;;;;;;;;;13.25;9.75;;;;;17.34;50.09;99025.88;4900417;28;104217;-67
2021/11/19 00:04:03;;;;;;;;;10.50;10.50;;;;;17.34;50.45;99016.81;4900882;28;103776;-66
2021/11/19 00:06:30;;;;;;;;;10.50;10.50;;;;;17.32;50.40;99011.63;4907514;28;104095;-66
2021/11/19 00:08:57;;;;;;;;;14.75;12.00;;;;;17.31;50.45;99014.56;4902839;28;102866;-67
2021/11/19 00:11:27;;;;;;;;;11.75;10.75;;;;;17.27;50.55;99008.75;4917806;28;104072;-66
2021/11/19 00:13:54;;;;;;;;;9.50;7.75;;;;;17.28;50.69;98995.91;4909092;28;104890;-67
2021/11/19 00:16:23;;;;;;;;;10.25;9.25;;;;;17.26;49.88;98992.56;4905174;28;105514;-67
2021/11/19 00:18:51;;;;;;;;;13.00;11.00;;;;;17.25;49.92;98990.91;4915416;28;102297;-67
2021/11/19 00:21:18;;;;;;;;;11.25;10.00;;;;;17.23;50.74;98990.31;4903588;28;104429;-67
2021/11/19 00:23:45;;;;;;;;;12.00;9.50;;;;;17.20;50.87;98999.00;4907610;28;102177;-67
2021/11/19 00:26:13;;;;;;;;;10.75;8.50;;;;;17.20;51.00;98996.25;4907925;28;102610;-66
2021/11/19 00:28:40;;;;;;;;;11.25;9.50;;;;;17.19;50.73;99011.81;4910773;28;103166;-66
2021/11/19 00:31:07;;;;;;;;;13.00;10.00;;;;;17.18;49.89;99007.41;4903088;28;103981;-66
2021/11/19 00:33:35;;;;;;;;;10.00;9.00;;;;;17.18;50.04;99001.13;4904929;28;103804;-67
2021/11/19 00:36:03;;;;;;;;;9.50;9.00;;;;;17.16;50.67;99004.06;4898465;28;103723;-66
2021/11/19 00:38:30;;;;;;;;;10.00;9.50;;;;;17.13;50.58;99003.72;4910358;28;102761;-66
2021/11/19 00:41:00;;;;;;;;;9.50;8.00;;;;;17.06;50.33;99003.81;4913782;28;104089;-66
2021/11/19 00:43:27;;;;;;;;;9.25;8.00;;;;;17.07;51.12;99005.47;4912612;28;105032;-67
2021/11/19 00:45:54;;;;;;;;;11.75;9.25;;;;;17.07;50.71;98999.16;4919678;28;102367;-67
2021/11/19 00:48:23;;;;;;;;;11.25;9.50;;;;;17.04;50.79;99000.47;4904703;28;103205;-66
2021/11/19 00:51:06;;;;;;;;;7.50;7.25;;;;;17.02;50.11;99007.25;4911506;28;104074;-66
2021/11/19 00:53:33;;;;;;;;;8.00;7.00;;;;;17.02;50.61;99012.72;4903852;28;102167;-67
2021/11/19 00:56:00;;;;;;;;;9.00;9.00;;;;;17.01;50.64;99016.50;4918786;28;102444;-67
2021/11/19 00:58:27;;;;;;;;;9.00;8.00;;;;;16.99;50.10;99002.22;4917915;28;102591;-67
2021/11/19 01:01:07;;;;;;;;;10.25;9.50;;;;;16.95;50.69;99005.44;4930261;28;104820;-67
2021/11/19 01:03:34;;;;;;;;;8.25;7.50;;;;;16.96;51.03;98995.34;4884724;28;103541;-67
2021/11/19 01:06:01;;;;;;;;;10.00;8.00;;;;;16.94;50.24;98994.72;4881530;28;102429;-66
2021/11/19 01:08:29;;;;;;;;;9.25;7.00;;;;;16.93;50.28;99004.81;4870743;28;102652;-66
2021/11/19 01:10:57;;;;;;;;;13.50;8.75;;;;;16.93;50.19;98996.63;4902917;28;104085;-66
2021/11/19 01:13:25;;;;;;;;;8.50;7.25;;;;;16.93;50.81;98988.44;4904159;28;103025;-66
2021/11/19 01:15:59;;;;;;;;;8.25;7.00;;;;;16.93;50.29;98980.25;4914870;28;102500;-66
2021/11/19 01:18:57;;;;;;;;;8.00;8.00;;;;;16.88;50.45;98992.94;4912261;28;102810;-66
2021/11/19 01:21:32;;;;;;;;;7.25;6.00;;;;;16.87;51.03;98994.84;4910296;28;109798;-66
2021/11/19 01:24:00;;;;;;;;;8.50;7.50;;;;;16.88;50.50;98991.06;4912269;28;102204;-66
2021/11/19 01:26:31;;;;;;;;;9.50;9.25;;;;;16.86;50.18;98978.69;4912600;28;102321;-66
2021/11/19 01:29:00;;;;;;;;;9.50;9.00;;;;;16.86;50.40;98986.88;4915067;28;102346;-66
2021/11/19 01:31:35;;;;;;;;;7.75;7.50;;;;;16.82;49.82;98972.84;4916546;28;108985;-66
2021/11/19 01:34:02;;;;;;;;;8.00;8.00;;;;;16.80;50.02;98977.69;4902572;28;102194;-66
2021/11/19 01:36:30;;;;;;;;;8.00;8.00;;;;;16.78;50.38;98976.28;4919476;28;103595;-66
2021/11/19 01:38:56;;;;;;;;;8.00;7.75;;;;;16.75;50.14;98972.09;4909394;28;102229;-66
2021/11/19 01:41:37;;;;;;;;;7.50;7.00;;;;;16.75;50.45;98980.28;4905226;28;104082;-66
2021/11/19 01:44:16;;;;;;;;;8.50;8.00;;;;;16.74;50.23;98980.53;4890118;28;102556;-66
2021/11/19 01:46:45;;;;;;;;;8.00;7.00;;;;;16.71;50.44;98984.56;4902832;28;104520;-66
2021/11/19 01:49:12;;;;;;;;;7.00;6.50;;;;;16.73;50.09;98974.25;4906935;28;102355;-66
2021/11/19 01:51:54;;;;;;;;;7.25;6.75;;;;;16.73;50.62;98976.97;4906331;28;104315;-66
2021/11/19 01:54:26;;;;;;;;;10.00;8.00;;;;;16.73;50.84;98979.72;4901980;28;104364;-66
2021/11/19 01:56:58;;;;;;;;;8.00;8.00;;;;;16.72;49.88;98963.53;4902639;28;102485;-66
2021/11/19 02:00:02;;;;;;;;;7.50;6.00;;;;;16.67;50.89;98958.78;4905673;28;102292;-66
2021/11/19 02:02:39;;;;;;;;;5.00;5.00;;;;;16.68;50.36;98968.63;4849285;28;108864;-66
2021/11/19 02:05:10;;;;;;;;;8.75;7.25;;;;;16.66;49.89;98951.63;4866935;28;104228;-66
2021/11/19 02:07:48;;;;;;;;;7.00;6.50;;;;;16.64;50.36;98956.53;4887816;28;102458;-66
2021/11/19 02:10:18;;;;;;;;;7.00;6.75;;;;;16.63;49.98;98960.31;4873337;28;105841;-66
2021/11/19 02:12:52;;;;;;;;;6.50;6.25;;;;;16.60;50.75;98955.31;4898305;28;104012;-67
2021/11/19 02:15:31;;;;;;;;;6.50;6.00;;;;;16.60;50.01;98949.84;4896772;28;102616;-66
2021/11/19 02:18:10;;;;;;;;;6.75;6.00;;;;;16.58;49.83;98946.50;4905258;28;102655;-66
2021/11/19 02:20:39;;;;;;;;;8.00;7.75;;;;;16.55;50.68;98946.94;4912651;28;104159;-66
2021/11/19 02:23:16;;;;;;;;;7.25;7.00;;;;;16.56;50.44;98939.59;4901909;28;104415;-66
2021/11/19 02:25:50;;;;;;;;;9.00;7.00;;;;;16.56;50.48;98940.44;4913223;28;102440;-66
2021/11/19 02:28:23;;;;;;;;;7.00;6.00;;;;;16.57;50.04;98933.09;4900494;28;102520;-66
2021/11/19 02:31:00;;;;;;;;;5.00;5.00;;;;;16.56;49.89;98934.13;4903730;28;102805;-67
2021/11/19 02:33:29;;;;;;;;;6.25;6.25;;;;;16.55;49.88;98936.03;4903527;28;104895;-66
2021/11/19 02:36:07;;;;;;;;;7.25;5.75;;;;;16.54;50.55;98934.34;4907263;28;104376;-66
2021/11/19 02:38:39;;;;;;;;;7.00;6.00;;;;;16.51;50.45;98937.56;4902167;28;102668;-66
2021/11/19 02:41:06;;;;;;;;;9.00;6.25;;;;;16.50;50.07;98927.69;4890430;28;102584;-66
2021/11/19 02:43:43;;;;;;;;;8.75;6.75;;;;;16.50;49.80;98917.63;4918113;28;104965;-66
2021/11/19 02:46:22;;;;;;;;;7.75;6.00;;;;;16.47;49.94;98919.97;4898888;28;103327;-66
2021/11/19 02:48:49;;;;;;;;;6.75;6.00;;;;;16.45;50.68;98924.81;4905383;28;103678;-66
2021/11/19 02:51:16;;;;;;;;;7.00;6.00;;;;;16.45;50.33;98913.91;4905095;28;104265;-66
2021/11/19 02:53:45;;;;;;;;;6.00;6.00;;;;;16.43;50.08;98913.31;4903097;28;104220;-66
2021/11/19 02:56:12;;;;;;;;;8.25;5.75;;;;;16.42;50.18;98908.91;4901203;28;102221;-66
2021/11/19 02:58:43;;;;;;;;;6.75;6.00;;;;;16.40;50.39;98908.31;4907561;28;103535;-66
2021/11/19 03:01:30;;;;;;;;;5.00;5.00;;;;;16.40;50.48;98913.75;4907834;28;102454;-66
2021/11/19 03:04:04;;;;;;;;;6.50;6.50;;;;;16.39;50.40;98914.84;4898783;28;104082;-66
2021/11/19 03:06:40;;;;;;;;;5.00;4.25;;;;;16.39;50.48;98915.66;4910071;28;102325;-66
2021/11/19 03:09:08;;;;;;;;;8.00;6.00;;;;;16.38;50.14;98902.25;4907145;28;102554;-66
2021/11/19 03:11:38;;;;;;;;;6.75;6.00;;;;;16.38;50.67;98914.00;4916538;28;102550;-66
2021/11/19 03:14:06;;;;;;;;;5.00;5.00;;;;;16.40;50.39;98911.03;4903697;28;108604;-66
2021/11/19 03:16:34;;;;;;;;;7.00;6.75;;;;;16.39;50.51;98903.94;4903577;28;102504;-66
2021/11/19 03:19:01;;;;;;;;;4.50;4.50;;;;;16.33;50.64;98908.41;4908567;28;102512;-66
2021/11/19 03:21:28;;;;;;;;;7.00;6.00;;;;;16.33;49.93;98896.66;4906442;28;102538;-66
2021/11/19 03:23:57;;;;;;;;;6.00;5.00;;;;;16.35;50.37;98899.97;4908581;28;104292;-66
2021/11/19 03:26:25;;;;;;;;;4.50;4.00;;;;;16.33;50.17;98902.13;4908127;28;104268;-66
2021/11/19 03:28:52;;;;;;;;;6.25;5.00;;;;;16.30;50.02;98888.94;4906822;28;102438;-66
2021/11/19 03:31:19;;;;;;;;;5.00;4.00;;;;;16.29;50.30;98895.47;4911893;28;104307;-66
2021/11/19 03:33:47;;;;;;;;;5.25;5.00;;;;;16.29;50.28;98900.91;4900515;28;104963;-66
2021/11/19 03:36:15;;;;;;;;;6.00;5.50;;;;;16.27;50.88;98892.13;4906080;28;103120;-66
2021/11/19 03:38:45;;;;;;;;;6.00;5.25;;;;;16.27;50.47;98894.84;4904560;28;102597;-66
2021/11/19 03:41:12;;;;;;;;;5.75;5.75;;;;;16.25;50.23;98892.38;4904887;28;110511;-67
2021/11/19 03:43:43;;;;;;;;;7.50;6.00;;;;;16.24;50.56;98895.31;4902424;28;108973;-67
2021/11/19 03:51:38;;;;;;;;;5.00;4.00;;;;;16.23;50.79;98896.38;5139588;22;102808;-70
2021/11/19 03:54:05;;;;;;;;;5.25;4.50;;;;;16.26;50.25;98891.28;4926335;28;104085;-69
2021/11/19 03:56:32;;;;;;;;;6.00;5.75;;;;;16.29;50.68;98887.28;4920842;28;102531;-69
2021/11/19 03:58:59;;;;;;;;;8.50;7.00;;;;;16.25;50.31;98892.38;4929161;28;102859;-69
2021/11/19 04:01:30;;;;;;;;;4.50;4.25;;;;;16.24;50.42;98895.31;4926083;28;102729;-69
2021/11/19 04:03:57;;;;;;;;;5.00;4.25;;;;;16.25;50.17;98897.81;4920296;28;105329;-68
2021/11/19 04:06:24;;;;;;;;;4.25;4.25;;;;;16.25;50.30;98894.25;4924024;28;102360;-69
2021/11/19 04:08:52;;;;;;;;;5.75;5.00;;;;;16.24;50.01;98901.59;4923082;28;103885;-69
2021/11/19 04:11:19;;;;;;;;;5.00;5.00;;;;;16.23;50.04;98899.94;4916837;28;102564;-70
2021/11/19 04:13:46;;;;;;;;;4.75;4.00;;;;;16.12;49.83;98889.78;4918626;28;104051;-69
2021/11/19 04:16:25;;;;;;;;;4.25;4.25;;;;;16.22;50.55;98897.41;4921614;28;111391;-69
2021/11/19 04:18:53;;;;;;;;;6.00;5.00;;;;;16.22;50.01;98887.34;4914995;28;102709;-69
2021/11/19 04:21:20;;;;;;;;;4.50;4.00;;;;;16.20;50.55;98883.19;4919068;28;102203;-69
2021/11/19 04:23:49;;;;;;;;;6.50;6.00;;;;;16.19;50.57;98873.34;4921091;28;104062;-70
2021/11/19 04:26:16;;;;;;;;;3.00;3.00;;;;;16.19;50.77;98889.72;4913088;28;102379;-69
2021/11/19 04:28:43;;;;;;;;;5.00;4.50;;;;;16.18;50.30;98880.69;4922846;28;105844;-69
2021/11/19 04:31:11;;;;;;;;;6.75;5.00;;;;;16.20;50.39;98883.19;4915713;28;102505;-70
2021/11/19 04:33:38;;;;;;;;;4.25;4.25;;;;;16.23;49.76;98882.72;4926022;28;103702;-69
2021/11/19 04:36:06;;;;;;;;;5.00;4.50;;;;;16.24;50.20;98884.41;4913131;28;102656;-69
2021/11/19 04:38:33;;;;;;;;;5.00;4.50;;;;;16.23;50.17;98878.09;4906596;28;102271;-69
2021/11/19 04:41:00;;;;;;;;;6.75;6.00;;;;;16.19;49.79;98885.09;4923743;28;102499;-68
2021/11/19 04:43:28;;;;;;;;;5.00;4.50;;;;;16.20;49.53;98877.75;4916904;28;104109;-69
2021/11/19 04:45:55;;;;;;;;;4.50;4.50;;;;;16.19;50.09;98876.06;4894132;28;105336;-69
2021/11/19 04:48:24;;;;;;;;;3.50;3.50;;;;;16.07;50.29;98863.19;4914191;28;102702;-69
2021/11/19 04:50:51;;;;;;;;;4.00;4.00;;;;;16.17;49.57;98878.19;4910872;28;102668;-69
2021/11/19 04:53:21;;;;;;;;;4.75;4.25;;;;;16.16;49.88;98868.34;4898216;28;112302;-69
2021/11/19 04:55:48;;;;;;;;;4.00;4.00;;;;;16.18;50.38;98872.50;4863576;28;102309;-68
2021/11/19 04:58:15;;;;;;;;;3.00;3.00;;;;;16.18;49.88;98866.22;4900271;28;102251;-69
2021/11/19 05:00:45;;;;;;;;;4.00;4.00;;;;;16.17;50.17;98868.09;4847407;28;103916;-69
2021/11/19 05:03:13;;;;;;;;;5.00;4.00;;;;;16.17;50.05;98862.66;4886918;28;104372;-70
2021/11/19 05:05:40;;;;;;;;;4.00;4.00;;;;;16.18;49.54;98864.31;4872902;28;102875;-69
2021/11/19 05:08:08;;;;;;;;;3.00;3.00;;;;;16.17;50.61;98876.28;4905381;28;102604;-69
2021/11/19 05:10:36;;;;;;;;;5.00;5.00;;;;;16.16;50.46;98860.16;4903828;28;102665;-69
2021/11/19 05:13:03;;;;;;;;;4.50;4.00;;;;;16.13;50.11;98866.06;4904430;28;103930;-69
2021/11/19 05:15:31;;;;;;;;;4.50;3.75;;;;;16.10;50.06;98867.38;4902550;28;102680;-69
2021/11/19 05:17:58;;;;;;;;;6.75;4.25;;;;;16.10;50.59;98861.06;4895568;28;102364;-69
2021/11/19 05:20:25;;;;;;;;;5.25;5.25;;;;;16.06;50.14;98855.25;4896259;28;102501;-69
2021/11/19 05:22:52;;;;;;;;;5.75;4.75;;;;;16.06;50.54;98856.09;4887247;28;104286;-69
2021/11/19 05:25:21;;;;;;;;;4.00;4.00;;;;;16.05;50.22;98864.50;4904620;28;104300;-69
2021/11/19 05:27:49;;;;;;;;;4.50;3.00;;;;;16.02;50.11;98865.81;4886534;28;102573;-69
2021/11/19 05:30:16;;;;;;;;;4.00;4.00;;;;;16.03;50.02;98875.63;4904085;28;102673;-69
2021/11/19 05:32:43;;;;;;;;;3.75;3.00;;;;;16.01;50.56;98868.75;4898164;28;104077;-69
2021/11/19 05:35:11;;;;;;;;;4.00;4.00;;;;;15.99;50.04;98877.16;4904610;28;104450;-69
2021/11/19 05:37:38;;;;;;;;;3.75;3.50;;;;;15.98;49.99;98880.13;4903737;28;102625;-70
2021/11/19 05:40:09;;;;;;;;;4.00;4.00;;;;;15.97;50.13;98884.75;4884384;28;103866;-69
2021/11/19 05:42:36;;;;;;;;;5.00;4.25;;;;;15.98;50.36;98878.22;4911885;28;103969;-70
2021/11/19 05:45:04;;;;;;;;;3.25;3.25;;;;;15.96;50.08;98883.06;4912892;28;103544;-69
2021/11/19 05:47:31;;;;;;;;;4.00;4.00;;;;;15.93;50.73;98891.72;4920722;28;102450;-70
2021/11/19 05:50:00;;;;;;;;;5.25;5.00;;;;;15.93;50.19;98878.09;4908844;28;103304;-69
2021/11/19 05:52:27;;;;;;;;;3.75;3.00;;;;;15.93;50.10;98883.53;4909522;28;104661;-69
2021/11/19 05:54:54;;;;;;;;;5.00;5.00;;;;;15.92;50.15;98886.47;4902329;28;102583;-69
2021/11/19 05:57:21;;;;;;;;;4.25;4.25;;;;;15.94;50.34;98884.38;4895549;28;102969;-69
2021/11/19 05:59:49;;;;;;;;;5.25;5.00;;;;;15.94;50.45;98885.19;4898276;28;102224;-69
2021/11/19 06:02:17;;;;;;;;;4.00;4.00;;;;;15.92;50.09;98892.78;4898746;28;104382;-68
2021/11/19 06:04:44;;;;;;;;;4.75;4.00;;;;;15.91;49.84;98891.09;4907458;28;104204;-69
2021/11/19 06:07:11;;;;;;;;;3.50;3.50;;;;;15.90;50.18;98886.69;4910758;28;105738;-69
2021/11/19 06:09:40;;;;;;;;;3.00;3.00;;;;;15.89;50.05;98887.78;4913776;28;102540;-69
2021/11/19 06:12:12;;;;;;;;;5.00;4.00;;;;;15.89;49.64;98898.69;4906968;28;108948;-69
2021/11/19 06:14:47;;;;;;;;;5.00;4.00;;;;;15.88;49.74;98897.03;4909957;28;102197;-69
2021/11/19 06:17:26;;;;;;;;;4.75;3.75;;;;;15.87;50.30;98895.34;4916785;28;102313;-68
2021/11/19 06:19:55;;;;;;;;;4.00;4.00;;;;;15.88;50.50;98907.94;4904458;28;103999;-69
2021/11/19 06:22:52;;;;;;;;;4.00;3.25;;;;;15.86;50.41;98912.75;4907490;28;103770;-69
2021/11/19 06:25:23;;;;;;;;;4.00;3.00;;;;;15.86;50.45;98904.59;4898694;28;102791;-68
2021/11/19 06:27:51;;;;;;;;;4.25;4.00;;;;;15.87;50.21;98906.25;4910139;28;102734;-68
2021/11/19 06:30:20;;;;;;;;;3.00;3.00;;;;;15.89;51.56;98906.88;4906710;28;102828;-69
2021/11/19 06:32:47;;;;;;;;;5.00;4.00;;;;;15.92;52.34;98922.78;4902868;28;104087;-69
2021/11/19 06:35:14;;;;;;;;;4.00;4.00;;;;;15.94;51.89;98909.72;4902558;28;102270;-69
2021/11/19 06:37:41;;;;;;;;;4.00;4.00;;;;;15.95;50.99;98908.66;4879660;28;102485;-69
2021/11/19 06:40:11;;;;;;;;;3.00;3.00;;;;;15.95;51.22;98914.13;4889424;28;102695;-69
2021/11/19 06:42:38;;;;;;;;;5.00;5.00;;;;;15.95;51.08;98913.28;4868499;28;104637;-68
2021/11/19 06:45:05;;;;;;;;;4.00;4.00;;;;;15.92;51.75;98909.13;4909001;28;105495;-69
2021/11/19 06:47:32;;;;;;;;;5.00;4.50;;;;;15.93;51.23;98918.16;4900086;28;102594;-69
2021/11/19 06:49:59;;;;;;;;;5.00;4.00;;;;;15.93;51.13;98913.53;4878013;28;102825;-69
2021/11/19 06:52:26;;;;;;;;;4.75;4.25;;;;;15.93;51.48;98919.00;4897828;28;104147;-69
2021/11/19 06:54:53;;;;;;;;;5.00;4.50;;;;;15.92;51.48;98920.03;4900307;28;102723;-69
2021/11/19 06:57:21;;;;;;;;;4.00;4.00;;;;;15.92;51.41;98914.59;4893067;28;102260;-69
2021/11/19 06:59:48;;;;;;;;;4.00;3.25;;;;;15.90;51.44;98918.59;4897732;28;102689;-69
2021/11/19 07:02:16;;;;;;;;;5.00;3.75;;;;;15.90;50.79;98911.25;4904004;28;104940;-68
2021/11/19 07:04:43;;;;;;;;;5.00;3.00;;;;;15.88;51.37;98924.28;4906101;28;102741;-68
2021/11/19 07:07:11;;;;;;;;;6.00;4.75;;;;;15.88;51.42;98934.38;4898607;28;112176;-68
2021/11/19 07:09:40;;;;;;;;;4.00;3.25;;;;;15.88;51.01;98939.81;4902639;28;102501;-68
2021/11/19 07:12:09;;;;;;;;;3.00;3.00;;;;;15.87;50.90;98932.69;4902254;28;104058;-68
2021/11/19 07:14:37;;;;;;;;;4.75;3.50;;;;;15.85;50.89;98924.72;4895115;28;102462;-68
2021/11/19 07:17:04;;;;;;;;;5.00;4.50;;;;;15.86;50.97;98929.13;4888723;28;104168;-69
2021/11/19 07:19:32;;;;;;;;;4.00;3.50;;;;;15.86;50.83;98933.75;4900285;28;102283;-69
2021/11/19 07:21:59;;;;;;;;;4.50;4.50;;;;;15.85;50.75;98937.56;4893252;28;104213;-68
2021/11/19 07:24:27;;;;;;;;;4.00;3.00;;;;;15.84;50.84;98938.59;4892597;28;103113;-68
2021/11/19 07:26:54;;;;;;;;;4.00;4.00;;;;;15.83;51.03;98935.03;4879952;28;103558;-69
2021/11/19 07:29:21;;;;;;;;;5.00;4.00;;;;;15.84;50.70;98935.88;4905983;28;102502;-69
2021/11/19 07:31:48;;;;;;;;;4.50;4.00;;;;;15.83;50.70;98926.03;4889167;28;104117;-68
2021/11/19 07:34:15;;;;;;;;;6.25;4.75;;;;;15.82;50.62;98936.09;4901019;28;103241;-68
2021/11/19 07:36:42;;;;;;;;;3.25;3.00;;;;;15.83;50.56;98920.56;4906893;28;104139;-69
2021/11/19 07:39:09;;;;;;;;;4.00;3.75;;;;;15.82;51.13;98930.63;4877610;28;102890;-68
2021/11/19 07:41:37;;;;;;;;;3.25;3.25;;;;;15.81;50.38;98931.69;4907248;28;104039;-68
2021/11/19 07:44:04;;;;;;;;;4.00;3.25;;;;;15.79;50.61;98925.66;4893256;28;102445;-68
2021/11/19 07:46:31;;;;;;;;;6.00;3.00;;;;;15.79;51.04;98920.19;4904104;28;104836;-69
2021/11/19 07:48:59;;;;;;;;;5.50;5.00;;;;;15.80;50.99;98921.88;4907890;28;102650;-69
2021/11/19 07:51:29;;;;;;;;;4.00;4.00;;;;;15.78;50.91;98929.44;4891891;28;104247;-69
2021/11/19 07:53:56;;;;;;;;;6.00;4.00;;;;;15.78;50.87;98932.16;4868279;28;102520;-69
2021/11/19 07:56:29;;;;;;;;;3.75;3.00;;;;;15.78;50.61;98923.13;4875997;28;102504;-69
2021/11/19 07:58:58;;;;;;;;;5.00;4.00;;;;;15.77;51.17;98922.31;4897377;28;104188;-69
2021/11/19 08:01:25;;;;;;;;;4.00;4.00;;;;;15.78;50.71;98931.31;4904104;28;106295;-68
2021/11/19 08:03:53;;;;;;;;;3.25;2.50;;;;;15.78;51.13;98923.97;4902646;28;103327;-69
2021/11/19 08:06:22;;;;;;;;;3.00;2.75;;;;;15.76;51.34;98931.53;4888195;28;104010;-69
2021/11/19 08:08:49;;;;;;;;;5.00;3.00;;;;;15.76;51.04;98937.00;4877604;28;103656;-68
2021/11/19 08:11:16;;;;;;;;;3.00;3.00;;;;;15.76;50.87;98934.25;4887516;28;104082;-68
2021/11/19 08:13:43;;;;;;;;;2.50;2.50;;;;;15.75;50.45;98929.91;4916296;28;104161;-68
2021/11/19 08:16:11;;;;;;;;;3.00;3.00;;;;;15.75;50.82;98938.06;4888703;28;102572;-69
2021/11/19 08:18:46;;;;;;;;;3.00;3.00;;;;;15.74;50.96;98939.13;4911249;28;102353;-68
2021/11/19 08:21:13;;;;;;;;;3.75;3.75;;;;;15.77;50.52;98946.84;4901379;28;104095;-69
2021/11/19 08:23:44;;;;;;;;;3.00;3.00;;;;;15.77;50.88;98951.47;4891081;28;102343;-69
2021/11/19 08:26:26;;;;;;;;;3.25;2.50;;;;;15.76;50.50;98942.44;4893376;28;103790;-69
2021/11/19 08:28:54;;;;;;;;;5.75;3.50;;;;;15.76;51.11;98941.63;4890564;28;102746;-69
2021/11/19 08:31:22;;;;;;;;;2.25;2.25;;;;;15.75;50.80;98962.63;4879068;28;108434;-68
2021/11/19 08:33:50;;;;;;;;;3.25;3.00;;;;;15.76;51.01;98953.34;4907139;28;102489;-68
2021/11/19 08:36:18;;;;;;;;;4.75;4.25;;;;;15.73;50.83;98958.41;4899298;28;102606;-68
2021/11/19 08:38:46;;;;;;;;;5.00;3.00;;;;;15.73;50.82;98962.00;4901315;28;110310;-69
2021/11/19 08:41:13;;;;;;;;;3.25;3.25;;;;;15.69;51.10;98944.41;4898779;28;103138;-69
2021/11/19 08:43:42;;;;;;;;;3.00;3.00;;;;;15.76;50.74;98960.72;4900116;28;102175;-68
2021/11/19 08:46:15;;;;;;;;;3.00;3.00;;;;;15.74;50.51;98957.38;4909166;28;103903;-68
2021/11/19 08:48:46;;;;;;;;;4.25;2.00;;;;;15.73;51.40;98964.72;4905899;28;102278;-68
2021/11/19 08:51:18;;;;;;;;;5.50;4.00;;;;;15.73;51.22;98963.88;4890018;28;103991;-68
2021/11/19 08:53:47;;;;;;;;;4.00;4.00;;;;;15.73;51.59;98961.16;4908909;28;111618;-68
2021/11/19 08:56:23;;;;;;;;;4.00;4.00;;;;;15.75;51.09;98968.06;4900634;28;105594;-69
2021/11/19 08:58:50;;;;;;;;;6.75;5.00;;;;;15.76;51.51;98958.00;4910724;28;103388;-69
2021/11/19 09:01:18;;;;;;;;;3.00;3.00;;;;;15.76;51.19;98958.81;4892245;28;104141;-69
2021/11/19 09:03:46;;;;;;;;;5.50;5.00;;;;;15.76;51.33;98960.72;4890989;28;102622;-68
2021/11/19 09:06:14;;;;;;;;;4.50;3.75;;;;;15.76;51.21;98952.53;4908817;28;102396;-69
2021/11/19 09:08:41;;;;;;;;;3.25;3.25;;;;;15.75;51.25;98957.16;4903594;28;102677;-68
2021/11/19 09:11:10;;;;;;;;;3.00;2.75;;;;;15.74;51.33;98955.47;4907747;28;104455;-69
2021/11/19 09:13:37;;;;;;;;;2.25;1.50;;;;;15.73;51.16;98956.53;4899583;28;102594;-68
2021/11/19 09:16:06;;;;;;;;;3.00;3.00;;;;;15.73;51.19;98962.00;4902599;28;102227;-68
2021/11/19 09:18:46;;;;;;;;;4.00;3.50;;;;;15.73;51.76;98959.25;4904311;28;104028;-67
2021/11/19 09:21:27;;;;;;;;;2.25;2.00;;;;;15.72;51.45;98963.03;4908892;28;103705;-68
2021/11/19 09:23:59;;;;;;;;;3.00;3.00;;;;;15.73;51.46;98958.41;4902775;28;102369;-69
2021/11/19 09:26:38;;;;;;;;;3.50;2.25;;;;;15.71;51.65;98955.94;4902371;28;104644;-69
2021/11/19 09:29:09;;;;;;;;;3.00;2.25;;;;;15.72;51.54;98960.31;4892671;28;102770;-68
2021/11/19 09:31:37;;;;;;;;;2.50;2.00;;;;;15.70;52.04;98964.34;4909424;28;104176;-68
2021/11/19 09:34:04;;;;;;;;;4.25;3.25;;;;;15.70;51.53;98962.44;4898483;28;102540;-67
2021/11/19 09:36:33;;;;;;;;;5.25;3.75;;;;;15.72;51.59;98962.19;4907505;28;102639;-68
2021/11/19 09:39:00;;;;;;;;;2.75;2.75;;;;;15.70;51.57;98964.34;4896289;28;103711;-68
2021/11/19 09:41:44;;;;;;;;;3.00;3.00;;;;;15.69;51.48;98963.50;4890371;28;103805;-69
2021/11/19 09:44:51;;;;;;;;;3.25;3.25;;;;;15.71;51.70;98961.41;4900671;28;102538;-69
2021/11/19 09:47:29;;;;;;;;;2.00;2.00;;;;;15.72;51.87;98971.22;4897922;28;102380;-68
2021/11/19 09:50:20;;;;;;;;;5.50;4.00;;;;;15.72;51.62;98964.94;4893451;28;104232;-68
2021/11/19 09:53:24;;;;;;;;;3.75;3.75;;;;;15.70;51.91;98958.88;4863261;28;108931;-68
2021/11/19 09:59:44;;;;;;;;;2.75;2.75;;;;;15.69;52.06;98952.59;4906100;28;102412;-68
2021/11/19 10:02:48;;;;;;;;;4.00;4.00;;;;;15.68;52.12;98956.38;4902966;28;103718;-68
2021/11/19 10:05:38;;;;;;;;;3.00;2.75;;;;;15.68;52.06;98959.09;4884660;28;108858;-68
2021/11/19 10:08:45;;;;;;;;;5.00;2.25;;;;;15.69;51.61;98946.31;4897713;28;102154;-69
2021/11/19 10:11:31;;;;;;;;;3.00;2.25;;;;;15.69;51.76;98936.25;4918601;28;102692;-68
2021/11/19 10:14:07;;;;;;;;;3.00;3.00;;;;;15.66;51.98;98944.88;4897255;28;110202;-68
2021/11/19 10:17:02;;;;;;;;;2.00;2.00;;;;;15.67;52.04;98943.78;4902258;28;108714;-68
2021/11/19 10:19:33;;;;;;;;;4.00;3.00;;;;;15.68;51.93;98942.75;4883563;28;104113;-68
2021/11/19 10:22:04;;;;;;;;;3.25;2.00;;;;;15.66;52.24;98941.31;4905037;28;102308;-68
2021/11/19 10:24:38;;;;;;;;;3.00;2.00;;;;;15.66;51.78;98944.03;4900483;28;102619;-69
2021/11/19 10:27:08;;;;;;;;;3.25;3.00;;;;;15.67;52.55;98941.06;4894121;28;104190;-69
2021/11/19 10:29:40;;;;;;;;;3.00;3.00;;;;;15.61;52.40;98931.09;4888366;28;102652;-68
2021/11/19 10:32:08;;;;;;;;;4.00;3.00;;;;;15.66;52.09;98936.69;4873030;28;104594;-68
2021/11/19 10:35:14;;;;;;;;;3.00;3.00;;;;;15.69;52.48;98929.94;4905819;28;102749;-68
2021/11/19 10:37:59;;;;;;;;;4.75;4.00;;;;;15.68;52.23;98926.38;4880112;28;107960;-68
2021/11/19 10:40:34;;;;;;;;;5.50;3.75;;;;;15.69;51.93;98925.34;4896694;28;102657;-68
2021/11/19 10:43:38;;;;;;;;;4.50;4.00;;;;;15.70;52.25;98929.72;4900840;28;102566;-68
2021/11/19 10:46:25;;;;;;;;;4.25;4.00;;;;;15.71;52.08;98928.69;4888964;28;102625;-68
2021/11/19 10:49:07;;;;;;;;;7.00;4.00;;;;;15.70;52.29;98921.56;4874503;28;108951;-68
2021/11/19 10:52:09;;;;;;;;;5.00;4.50;;;;;15.70;52.43;98924.28;4901045;28;102705;-68
2021/11/19 10:54:58;;;;;;;;;2.75;2.50;;;;;15.70;53.36;98918.00;4882035;28;102837;-68
2021/11/19 10:58:03;;;;;;;;;4.00;4.00;;;;;15.67;53.29;98916.53;4901162;28;102457;-67
2021/11/19 11:00:55;;;;;;;;;4.50;3.50;;;;;15.68;52.96;98912.75;4918264;28;108705;-68
2021/11/19 11:03:25;;;;;;;;;4.00;3.00;;;;;15.68;53.56;98910.03;4904001;28;102444;-68
2021/11/19 11:06:00;;;;;;;;;4.50;3.50;;;;;15.69;53.09;98917.16;4911224;28;102132;-67
2021/11/19 11:08:32;;;;;;;;;4.00;3.00;;;;;15.68;53.15;98920.94;4893330;28;102570;-67
2021/11/19 11:11:09;;;;;;;;;3.25;3.00;;;;;15.68;53.37;98918.22;4907781;28;104236;-68
2021/11/19 11:13:38;;;;;;;;;4.25;4.00;;;;;15.68;52.83;98912.75;4879904;28;102641;-68
2021/11/19 11:16:10;;;;;;;;;4.00;4.00;;;;;15.67;53.09;98911.09;4876232;28;102561;-68
2021/11/19 11:18:54;;;;;;;;;3.25;2.75;;;;;15.69;53.55;98913.59;4889216;28;102167;-68
2021/11/19 11:21:33;;;;;;;;;5.00;5.00;;;;;15.68;53.26;98914.66;4790470;28;104039;-68
2021/11/19 11:24:30;;;;;;;;;4.00;3.00;;;;;15.67;52.91;98905.63;4880304;28;103811;-68
2021/11/19 11:27:13;;;;;;;;;5.00;4.25;;;;;15.67;52.74;98911.09;4883764;28;103907;-68
2021/11/19 11:29:51;;;;;;;;;5.00;4.75;;;;;15.66;52.55;98909.44;4897871;28;102760;-68
2021/11/19 11:32:42;;;;;;;;;4.75;3.50;;;;;15.67;52.65;98915.72;4893430;28;104175;-69
2021/11/19 11:35:13;;;;;;;;;4.75;3.50;;;;;15.65;53.16;98902.31;4884981;28;102881;-68
2021/11/19 11:38:06;;;;;;;;;2.75;2.25;;;;;15.65;53.04;98906.94;4880109;28;102896;-68
2021/11/19 11:40:35;;;;;;;;;3.50;3.00;;;;;15.61;53.70;98914.72;4880797;28;102489;-67
2021/11/19 11:43:32;;;;;;;;;6.75;3.00;;;;;15.62;53.12;98909.03;4903188;28;103838;-67
2021/11/19 11:46:20;;;;;;;;;2.25;2.25;;;;;15.62;52.92;98902.78;4885101;28;102474;-68
2021/11/19 11:49:09;;;;;;;;;3.00;3.00;;;;;15.63;53.13;98901.69;4903763;28;102758;-68
2021/11/19 11:51:58;;;;;;;;;6.25;4.00;;;;;15.63;53.30;98904.41;4825630;28;102728;-68
2021/11/19 11:54:38;;;;;;;;;2.50;2.00;;;;;15.63;53.68;98896.25;4893759;28;107853;-68
2021/11/19 11:57:23;;;;;;;;;3.25;3.00;;;;;15.62;53.73;98900.06;4897732;28;102899;-68